Aviation Digital Data Service (ADDS)

Output produced by METARs form (2243 UTC 23 March 2019)
found at http://www.aviationweather.gov/metar/data/
 
METAR text: RCNN 232230Z 36002KT 8000 FEW010 SCT025 BKN050 16/14 Q1017 NOSIG RMK A3005
Conditions at: RCNN (TAINAN TW-AFB , TW) observed 2230 UTC 23 March 2019
Temperature: 16.0°C (61°F)
Dewpoint: 14.0°C (57°F) [RH = 88%]
Pressure (altimeter): 30.03 inches Hg (1017.0 mb)
Winds: from the N (360 degrees) at 2 MPH (2 knots; 1.0 m/s)
Visibility: 5 miles ( 8 km)
Ceiling: 5000 feet AGL
Clouds: few clouds at 1000 feet AGL
scattered clouds at 2500 feet AGL
broken clouds at 5000 feet AGL
Weather: no significant weather observed at this time

METAR text: RCNN 232200Z 35002KT 9000 FEW010 SCT025 BKN050 16/14 Q1017 NOSIG RMK A3005
Conditions at: RCNN (TAINAN TW-AFB , TW) observed 2200 UTC 23 March 2019
Temperature: 16.0°C (61°F)
Dewpoint: 14.0°C (57°F) [RH = 88%]
Pressure (altimeter): 30.03 inches Hg (1017.0 mb)
Winds: from the N (350 degrees) at 2 MPH (2 knots; 1.0 m/s)
Visibility: 6 miles ( 9 km)
Ceiling: 5000 feet AGL
Clouds: few clouds at 1000 feet AGL
scattered clouds at 2500 feet AGL
broken clouds at 5000 feet AGL
Weather: no significant weather observed at this time

METAR text: RCNN 232130Z 00000KT 9000 FEW010 SCT025 BKN050 15/13 Q1017 NOSIG RMK A3004
Conditions at: RCNN (TAINAN TW-AFB , TW) observed 2130 UTC 23 March 2019
Temperature: 15.0°C (59°F)
Dewpoint: 13.0°C (55°F) [RH = 88%]
Pressure (altimeter): 30.03 inches Hg (1017.0 mb)
Winds: calm
Visibility: 6 miles ( 9 km)
Ceiling: 5000 feet AGL
Clouds: few clouds at 1000 feet AGL
scattered clouds at 2500 feet AGL
broken clouds at 5000 feet AGL
Weather: no significant weather observed at this time

METAR text: RCNN 232100Z 04003KT 8000 VCSH FEW010 SCT025 BKN050 15/13 Q1016 NOSIG RMK A3003 RA AMT 0.2MM VCSH E
Conditions at: RCNN (TAINAN TW-AFB , TW) observed 2100 UTC 23 March 2019
Temperature: 15.0°C (59°F)
Dewpoint: 13.0°C (55°F) [RH = 88%]
Pressure (altimeter): 30.00 inches Hg (1016.0 mb)
Winds: from the NE (40 degrees) at 3 MPH (3 knots; 1.5 m/s)
Visibility: 5 miles ( 8 km)
Ceiling: 5000 feet AGL
Clouds: few clouds at 1000 feet AGL
scattered clouds at 2500 feet AGL
broken clouds at 5000 feet AGL
Weather: VCSH  (showers in vicinity)

METAR text: RCNN 232056Z 05004KT 8000 VCSH FEW010 SCT025 BKN050 15/13 Q1016 RMK A3002 VCSH E
Conditions at: RCNN (TAINAN TW-AFB , TW) observed 2056 UTC 23 March 2019
Temperature: 15.0°C (59°F)
Dewpoint: 13.0°C (55°F) [RH = 88%]
Pressure (altimeter): 30.00 inches Hg (1016.0 mb)
Winds: from the NE (50 degrees) at 5 MPH (4 knots; 2.1 m/s)
Visibility: 5 miles ( 8 km)
Ceiling: 5000 feet AGL
Clouds: few clouds at 1000 feet AGL
scattered clouds at 2500 feet AGL
broken clouds at 5000 feet AGL
Weather: VCSH  (showers in vicinity)

METAR text: RCNN 232030Z 08005KT 8000 -RA FEW010 SCT025 BKN050 15/13 Q1016 RMK A3002
Conditions at: RCNN (TAINAN TW-AFB , TW) observed 2030 UTC 23 March 2019
Temperature: 15.0°C (59°F)
Dewpoint: 13.0°C (55°F) [RH = 88%]
Pressure (altimeter): 30.00 inches Hg (1016.0 mb)
Winds: from the E (80 degrees) at 6 MPH (5 knots; 2.6 m/s)
Visibility: 5 miles ( 8 km)
Ceiling: 5000 feet AGL
Clouds: few clouds at 1000 feet AGL
scattered clouds at 2500 feet AGL
broken clouds at 5000 feet AGL
Weather: -RA  (light rain)

METAR text: RCNN 232005Z 04006KT 9000 -RA FEW010 SCT025 BKN050 16/13 Q1017 RMK A3004
Conditions at: RCNN (TAINAN TW-AFB , TW) observed 2005 UTC 23 March 2019
Temperature: 16.0°C (61°F)
Dewpoint: 13.0°C (55°F) [RH = 82%]
Pressure (altimeter): 30.03 inches Hg (1017.0 mb)
Winds: from the NE (40 degrees) at 7 MPH (6 knots; 3.1 m/s)
Visibility: 6 miles ( 9 km)
Ceiling: 5000 feet AGL
Clouds: few clouds at 1000 feet AGL
scattered clouds at 2500 feet AGL
broken clouds at 5000 feet AGL
Weather: -RA  (light rain)

METAR text: RCNN 232000Z 03006KT 9000 VCSH FEW010 BKN060 16/13 Q1017 RMK A3004 VCSH NW
Conditions at: RCNN (TAINAN TW-AFB , TW) observed 2000 UTC 23 March 2019
Temperature: 16.0°C (61°F)
Dewpoint: 13.0°C (55°F) [RH = 82%]
Pressure (altimeter): 30.03 inches Hg (1017.0 mb)
Winds: from the NNE (30 degrees) at 7 MPH (6 knots; 3.1 m/s)
Visibility: 6 miles ( 9 km)
Ceiling: 6000 feet AGL
Clouds: few clouds at 1000 feet AGL
broken clouds at 6000 feet AGL
Weather: VCSH  (showers in vicinity)

METAR text: RCNN 231900Z 35005KT 9999 FEW010 BKN060 16/13 Q1017 RMK A3004
Conditions at: RCNN (TAINAN TW-AFB , TW) observed 1900 UTC 23 March 2019
Temperature: 16.0°C (61°F)
Dewpoint: 13.0°C (55°F) [RH = 82%]
Pressure (altimeter): 30.03 inches Hg (1017.0 mb)
Winds: from the N (350 degrees) at 6 MPH (5 knots; 2.6 m/s)
Visibility: 6 or more miles (10+ km)
Ceiling: 6000 feet AGL
Clouds: few clouds at 1000 feet AGL
broken clouds at 6000 feet AGL
Weather: no significant weather observed at this time

METAR text: RCNN 231800Z 36005KT 9999 FEW010 BKN060 16/12 Q1017 RMK A3004
Conditions at: RCNN (TAINAN TW-AFB , TW) observed 1800 UTC 23 March 2019
Temperature: 16.0°C (61°F)
Dewpoint: 12.0°C (54°F) [RH = 77%]
Pressure (altimeter): 30.03 inches Hg (1017.0 mb)
Winds: from the N (360 degrees) at 6 MPH (5 knots; 2.6 m/s)
Visibility: 6 or more miles (10+ km)
Ceiling: 6000 feet AGL
Clouds: few clouds at 1000 feet AGL
broken clouds at 6000 feet AGL
Weather: no significant weather observed at this time

METAR text: RCNN 231700Z 03006KT 9999 FEW010 BKN060 16/12 Q1017 RMK A3004
Conditions at: RCNN (TAINAN TW-AFB , TW) observed 1700 UTC 23 March 2019
Temperature: 16.0°C (61°F)
Dewpoint: 12.0°C (54°F) [RH = 77%]
Pressure (altimeter): 30.03 inches Hg (1017.0 mb)
Winds: from the NNE (30 degrees) at 7 MPH (6 knots; 3.1 m/s)
Visibility: 6 or more miles (10+ km)
Ceiling: 6000 feet AGL
Clouds: few clouds at 1000 feet AGL
broken clouds at 6000 feet AGL
Weather: no significant weather observed at this time

METAR text: RCNN 231600Z 01006KT 9999 FEW010 BKN060 16/12 Q1017 RMK A3006
Conditions at: RCNN (TAINAN TW-AFB , TW) observed 1600 UTC 23 March 2019
Temperature: 16.0°C (61°F)
Dewpoint: 12.0°C (54°F) [RH = 77%]
Pressure (altimeter): 30.03 inches Hg (1017.0 mb)
Winds: from the N (10 degrees) at 7 MPH (6 knots; 3.1 m/s)
Visibility: 6 or more miles (10+ km)
Ceiling: 6000 feet AGL
Clouds: few clouds at 1000 feet AGL
broken clouds at 6000 feet AGL
Weather: no significant weather observed at this time

METAR text: RCNN 231500Z 01010KT 9999 FEW010 SCT030 BKN060 16/12 Q1017 RMK A3006
Conditions at: RCNN (TAINAN TW-AFB , TW) observed 1500 UTC 23 March 2019
Temperature: 16.0°C (61°F)
Dewpoint: 12.0°C (54°F) [RH = 77%]
Pressure (altimeter): 30.03 inches Hg (1017.0 mb)
Winds: from the N (10 degrees) at 12 MPH (10 knots; 5.1 m/s)
Visibility: 6 or more miles (10+ km)
Ceiling: 6000 feet AGL
Clouds: few clouds at 1000 feet AGL
scattered clouds at 3000 feet AGL
broken clouds at 6000 feet AGL
Weather: no significant weather observed at this time

METAR text: RCNN 231400Z 02010KT 9999 FEW010 SCT030 BKN060 16/13 Q1018 RMK A3007
Conditions at: RCNN (TAINAN TW-AFB , TW) observed 1400 UTC 23 March 2019
Temperature: 16.0°C (61°F)
Dewpoint: 13.0°C (55°F) [RH = 82%]
Pressure (altimeter): 30.06 inches Hg (1018.0 mb)
Winds: from the NNE (20 degrees) at 12 MPH (10 knots; 5.1 m/s)
Visibility: 6 or more miles (10+ km)
Ceiling: 6000 feet AGL
Clouds: few clouds at 1000 feet AGL
scattered clouds at 3000 feet AGL
broken clouds at 6000 feet AGL
Weather: no significant weather observed at this time

METAR text: RCNN 231330Z 01009KT 9999 FEW010 SCT030 BKN060 16/14 Q1018 RMK A3007
Conditions at: RCNN (TAINAN TW-AFB , TW) observed 1330 UTC 23 March 2019
Temperature: 16.0°C (61°F)
Dewpoint: 14.0°C (57°F) [RH = 88%]
Pressure (altimeter): 30.06 inches Hg (1018.0 mb)
Winds: from the N (10 degrees) at 10 MPH (9 knots; 4.6 m/s)
Visibility: 6 or more miles (10+ km)
Ceiling: 6000 feet AGL
Clouds: few clouds at 1000 feet AGL
scattered clouds at 3000 feet AGL
broken clouds at 6000 feet AGL
Weather: no significant weather observed at this time

METAR text: RCNN 231300Z 36009KT 9999 FEW010 SCT030 BKN060 17/14 Q1017 RMK A3006
Conditions at: RCNN (TAINAN TW-AFB , TW) observed 1300 UTC 23 March 2019
Temperature: 17.0°C (63°F)
Dewpoint: 14.0°C (57°F) [RH = 82%]
Pressure (altimeter): 30.03 inches Hg (1017.0 mb)
Winds: from the N (360 degrees) at 10 MPH (9 knots; 4.6 m/s)
Visibility: 6 or more miles (10+ km)
Ceiling: 6000 feet AGL
Clouds: few clouds at 1000 feet AGL
scattered clouds at 3000 feet AGL
broken clouds at 6000 feet AGL
Weather: no significant weather observed at this time

METAR text: RCNN 231230Z 36010KT 9999 FEW010 SCT030 BKN060 17/14 Q1017 RMK A3005
Conditions at: RCNN (TAINAN TW-AFB , TW) observed 1230 UTC 23 March 2019
Temperature: 17.0°C (63°F)
Dewpoint: 14.0°C (57°F) [RH = 82%]
Pressure (altimeter): 30.03 inches Hg (1017.0 mb)
Winds: from the N (360 degrees) at 12 MPH (10 knots; 5.1 m/s)
Visibility: 6 or more miles (10+ km)
Ceiling: 6000 feet AGL
Clouds: few clouds at 1000 feet AGL
scattered clouds at 3000 feet AGL
broken clouds at 6000 feet AGL
Weather: no significant weather observed at this time

METAR text: RCNN 231200Z 01009KT 9999 FEW010 SCT030 BKN060 17/14 Q1016 RMK A3003
Conditions at: RCNN (TAINAN TW-AFB , TW) observed 1200 UTC 23 March 2019
Temperature: 17.0°C (63°F)
Dewpoint: 14.0°C (57°F) [RH = 82%]
Pressure (altimeter): 30.00 inches Hg (1016.0 mb)
Winds: from the N (10 degrees) at 10 MPH (9 knots; 4.6 m/s)
Visibility: 6 or more miles (10+ km)
Ceiling: 6000 feet AGL
Clouds: few clouds at 1000 feet AGL
scattered clouds at 3000 feet AGL
broken clouds at 6000 feet AGL
Weather: no significant weather observed at this time

METAR text: RCNN 231130Z 02010KT 9999 FEW010 SCT030 BKN060 17/14 Q1016 NOSIG RMK A3003
Conditions at: RCNN (TAINAN TW-AFB , TW) observed 1130 UTC 23 March 2019
Temperature: 17.0°C (63°F)
Dewpoint: 14.0°C (57°F) [RH = 82%]
Pressure (altimeter): 30.00 inches Hg (1016.0 mb)
Winds: from the NNE (20 degrees) at 12 MPH (10 knots; 5.1 m/s)
Visibility: 6 or more miles (10+ km)
Ceiling: 6000 feet AGL
Clouds: few clouds at 1000 feet AGL
scattered clouds at 3000 feet AGL
broken clouds at 6000 feet AGL
Weather: no significant weather observed at this time

METAR text: RCNN 231100Z 01010KT 9000 FEW010 BKN030 BKN060 18/15 Q1016 NOSIG RMK A3002
Conditions at: RCNN (TAINAN TW-AFB , TW) observed 1100 UTC 23 March 2019
Temperature: 18.0°C (64°F)
Dewpoint: 15.0°C (59°F) [RH = 83%]
Pressure (altimeter): 30.00 inches Hg (1016.0 mb)
Winds: from the N (10 degrees) at 12 MPH (10 knots; 5.1 m/s)
Visibility: 6 miles ( 9 km)
Ceiling: 3000 feet AGL
Clouds: few clouds at 1000 feet AGL
broken clouds at 3000 feet AGL
broken clouds at 6000 feet AGL
Weather: no significant weather observed at this time

METAR text: RCNN 231030Z 01009KT 8000 FEW010 BKN030 BKN060 18/15 Q1016 NOSIG RMK A3001
Conditions at: RCNN (TAINAN TW-AFB , TW) observed 1030 UTC 23 March 2019
Temperature: 18.0°C (64°F)
Dewpoint: 15.0°C (59°F) [RH = 83%]
Pressure (altimeter): 30.00 inches Hg (1016.0 mb)
Winds: from the N (10 degrees) at 10 MPH (9 knots; 4.6 m/s)
Visibility: 5 miles ( 8 km)
Ceiling: 3000 feet AGL
Clouds: few clouds at 1000 feet AGL
broken clouds at 3000 feet AGL
broken clouds at 6000 feet AGL
Weather: no significant weather observed at this time

METAR text: RCNN 231000Z 02008KT 7000 FEW010 BKN025 BKN050 18/16 Q1016 NOSIG RMK A3001
Conditions at: RCNN (TAINAN TW-AFB , TW) observed 1000 UTC 23 March 2019
Temperature: 18.0°C (64°F)
Dewpoint: 16.0°C (61°F) [RH = 88%]
Pressure (altimeter): 30.00 inches Hg (1016.0 mb)
Winds: from the NNE (20 degrees) at 9 MPH (8 knots; 4.1 m/s)
Visibility: 4 miles ( 7 km)
Ceiling: 2500 feet AGL
Clouds: few clouds at 1000 feet AGL
broken clouds at 2500 feet AGL
broken clouds at 5000 feet AGL
Weather: no significant weather observed at this time

METAR text: RCNN 230930Z 01008KT 7000 FEW010 BKN025 BKN050 19/16 Q1016 NOSIG RMK A3001
Conditions at: RCNN (TAINAN TW-AFB , TW) observed 0930 UTC 23 March 2019
Temperature: 19.0°C (66°F)
Dewpoint: 16.0°C (61°F) [RH = 83%]
Pressure (altimeter): 30.00 inches Hg (1016.0 mb)
Winds: from the N (10 degrees) at 9 MPH (8 knots; 4.1 m/s)
Visibility: 4 miles ( 7 km)
Ceiling: 2500 feet AGL
Clouds: few clouds at 1000 feet AGL
broken clouds at 2500 feet AGL
broken clouds at 5000 feet AGL
Weather: no significant weather observed at this time

METAR text: RCNN 230900Z 02008KT 7000 FEW010 BKN025 BKN050 19/17 Q1015 NOSIG RMK A3000
Conditions at: RCNN (TAINAN TW-AFB , TW) observed 0900 UTC 23 March 2019
Temperature: 19.0°C (66°F)
Dewpoint: 17.0°C (63°F) [RH = 88%]
Pressure (altimeter): 29.97 inches Hg (1015.0 mb)
Winds: from the NNE (20 degrees) at 9 MPH (8 knots; 4.1 m/s)
Visibility: 4 miles ( 7 km)
Ceiling: 2500 feet AGL
Clouds: few clouds at 1000 feet AGL
broken clouds at 2500 feet AGL
broken clouds at 5000 feet AGL
Weather: no significant weather observed at this time

METAR text: RCNN 230830Z 01008KT 7000 FEW010 BKN025 BKN050 19/17 Q1015 NOSIG RMK A3000
Conditions at: RCNN (TAINAN TW-AFB , TW) observed 0830 UTC 23 March 2019
Temperature: 19.0°C (66°F)
Dewpoint: 17.0°C (63°F) [RH = 88%]
Pressure (altimeter): 29.97 inches Hg (1015.0 mb)
Winds: from the N (10 degrees) at 9 MPH (8 knots; 4.1 m/s)
Visibility: 4 miles ( 7 km)
Ceiling: 2500 feet AGL
Clouds: few clouds at 1000 feet AGL
broken clouds at 2500 feet AGL
broken clouds at 5000 feet AGL
Weather: no significant weather observed at this time

METAR text: RCNN 230800Z 02008KT 6000 VCSH FEW010 BKN025 BKN050 19/17 Q1015 NOSIG RMK A3000 VCSH S
Conditions at: RCNN (TAINAN TW-AFB , TW) observed 0800 UTC 23 March 2019
Temperature: 19.0°C (66°F)
Dewpoint: 17.0°C (63°F) [RH = 88%]
Pressure (altimeter): 29.97 inches Hg (1015.0 mb)
Winds: from the NNE (20 degrees) at 9 MPH (8 knots; 4.1 m/s)
Visibility: 4 miles ( 6 km)
Ceiling: 2500 feet AGL
Clouds: few clouds at 1000 feet AGL
broken clouds at 2500 feet AGL
broken clouds at 5000 feet AGL
Weather: VCSH  (showers in vicinity)

METAR text: RCNN 230730Z 36007KT 6000 VCSH FEW010 BKN025 BKN050 19/17 Q1015 NOSIG RMK A3000 VCSH S
Conditions at: RCNN (TAINAN TW-AFB , TW) observed 0730 UTC 23 March 2019
Temperature: 19.0°C (66°F)
Dewpoint: 17.0°C (63°F) [RH = 88%]
Pressure (altimeter): 29.97 inches Hg (1015.0 mb)
Winds: from the N (360 degrees) at 8 MPH (7 knots; 3.6 m/s)
Visibility: 4 miles ( 6 km)
Ceiling: 2500 feet AGL
Clouds: few clouds at 1000 feet AGL
broken clouds at 2500 feet AGL
broken clouds at 5000 feet AGL
Weather: VCSH  (showers in vicinity)

METAR text: RCNN 230700Z 35009KT 6000 VCSH FEW010 BKN025 BKN050 19/18 Q1015 NOSIG RMK A3000 VCSH S
Conditions at: RCNN (TAINAN TW-AFB , TW) observed 0700 UTC 23 March 2019
Temperature: 19.0°C (66°F)
Dewpoint: 18.0°C (64°F) [RH = 94%]
Pressure (altimeter): 29.97 inches Hg (1015.0 mb)
Winds: from the N (350 degrees) at 10 MPH (9 knots; 4.6 m/s)
Visibility: 4 miles ( 6 km)
Ceiling: 2500 feet AGL
Clouds: few clouds at 1000 feet AGL
broken clouds at 2500 feet AGL
broken clouds at 5000 feet AGL
Weather: VCSH  (showers in vicinity)

METAR text: RCNN 230645Z 01006KT 6000 VCSH FEW010 BKN025 BKN050 20/18 Q1015 NOSIG RMK A3000 VCSH S
Conditions at: RCNN (TAINAN TW-AFB , TW) observed 0645 UTC 23 March 2019
Temperature: 20.0°C (68°F)
Dewpoint: 18.0°C (64°F) [RH = 88%]
Pressure (altimeter): 29.97 inches Hg (1015.0 mb)
Winds: from the N (10 degrees) at 7 MPH (6 knots; 3.1 m/s)
Visibility: 4 miles ( 6 km)
Ceiling: 2500 feet AGL
Clouds: few clouds at 1000 feet AGL
broken clouds at 2500 feet AGL
broken clouds at 5000 feet AGL
Weather: VCSH  (showers in vicinity)

METAR text: RCNN 230630Z 36005KT 4000 -RA BR FEW010 BKN025 BKN050 20/18 Q1015 NOSIG RMK A3000
Conditions at: RCNN (TAINAN TW-AFB , TW) observed 0630 UTC 23 March 2019
Temperature: 20.0°C (68°F)
Dewpoint: 18.0°C (64°F) [RH = 88%]
Pressure (altimeter): 29.97 inches Hg (1015.0 mb)
Winds: from the N (360 degrees) at 6 MPH (5 knots; 2.6 m/s)
Visibility: 2.49 miles (4.01 km)
Ceiling: 2500 feet AGL
Clouds: few clouds at 1000 feet AGL
broken clouds at 2500 feet AGL
broken clouds at 5000 feet AGL
Weather: -RA BR  (light rain, mist)

METAR text: RCNN 230610Z 36004KT 4000 -RA BR FEW008 BKN021 BKN040 18/17 Q1016 NOSIG RMK A3001
Conditions at: RCNN (TAINAN TW-AFB , TW) observed 0610 UTC 23 March 2019
Temperature: 18.0°C (64°F)
Dewpoint: 17.0°C (63°F) [RH = 94%]
Pressure (altimeter): 30.00 inches Hg (1016.0 mb)
Winds: from the N (360 degrees) at 5 MPH (4 knots; 2.1 m/s)
Visibility: 2.49 miles (4.01 km)
Ceiling: 2100 feet AGL
Clouds: few clouds at 800 feet AGL
broken clouds at 2100 feet AGL
broken clouds at 4000 feet AGL
Weather: -RA BR  (light rain, mist)

METAR text: RCNN 230600Z 01004KT 2400 -RA BR SCT008 BKN021 BKN040 18/17 Q1016 NOSIG RMK A3001 RA AMT 0.2MM
Conditions at: RCNN (TAINAN TW-AFB , TW) observed 0600 UTC 23 March 2019
Temperature: 18.0°C (64°F)
Dewpoint: 17.0°C (63°F) [RH = 94%]
Pressure (altimeter): 30.00 inches Hg (1016.0 mb)
Winds: from the N (10 degrees) at 5 MPH (4 knots; 2.1 m/s)
Visibility: 1.49 miles (2.40 km)
Ceiling: 2100 feet AGL
Clouds: scattered clouds at 800 feet AGL
broken clouds at 2100 feet AGL
broken clouds at 4000 feet AGL
Weather: -RA BR  (light rain, mist)

METAR text: RCNN 230530Z 35007KT 2400 -RA BR SCT008 BKN021 OVC040 18/17 Q1016 NOSIG RMK A3002
Conditions at: RCNN (TAINAN TW-AFB , TW) observed 0530 UTC 23 March 2019
Temperature: 18.0°C (64°F)
Dewpoint: 17.0°C (63°F) [RH = 94%]
Pressure (altimeter): 30.00 inches Hg (1016.0 mb)
Winds: from the N (350 degrees) at 8 MPH (7 knots; 3.6 m/s)
Visibility: 1.49 miles (2.40 km)
Ceiling: 2100 feet AGL
Clouds: scattered clouds at 800 feet AGL
broken clouds at 2100 feet AGL
overcast cloud deck at 4000 feet AGL
Weather: -RA BR  (light rain, mist)

METAR text: RCNN 230500Z 02006KT 2400 -RA BR SCT008 BKN021 OVC040 17/16 Q1016 NOSIG RMK A3002 RA AMT 0.7MM
Conditions at: RCNN (TAINAN TW-AFB , TW) observed 0500 UTC 23 March 2019
Temperature: 17.0°C (63°F)
Dewpoint: 16.0°C (61°F) [RH = 94%]
Pressure (altimeter): 30.00 inches Hg (1016.0 mb)
Winds: from the NNE (20 degrees) at 7 MPH (6 knots; 3.1 m/s)
Visibility: 1.49 miles (2.40 km)
Ceiling: 2100 feet AGL
Clouds: scattered clouds at 800 feet AGL
broken clouds at 2100 feet AGL
overcast cloud deck at 4000 feet AGL
Weather: -RA BR  (light rain, mist)

METAR text: RCNN 230430Z 36009KT 2400 -RA BR SCT008 BKN021 OVC040 17/16 Q1017 NOSIG RMK A3004
Conditions at: RCNN (TAINAN TW-AFB , TW) observed 0430 UTC 23 March 2019
Temperature: 17.0°C (63°F)
Dewpoint: 16.0°C (61°F) [RH = 94%]
Pressure (altimeter): 30.03 inches Hg (1017.0 mb)
Winds: from the N (360 degrees) at 10 MPH (9 knots; 4.6 m/s)
Visibility: 1.49 miles (2.40 km)
Ceiling: 2100 feet AGL
Clouds: scattered clouds at 800 feet AGL
broken clouds at 2100 feet AGL
overcast cloud deck at 4000 feet AGL
Weather: -RA BR  (light rain, mist)

METAR text: RCNN 230400Z 36009KT 2400 -RA BR SCT008 BKN020 OVC032 18/16 Q1017 NOSIG RMK A3005 RA AMT 2.5MM
Conditions at: RCNN (TAINAN TW-AFB , TW) observed 0400 UTC 23 March 2019
Temperature: 18.0°C (64°F)
Dewpoint: 16.0°C (61°F) [RH = 88%]
Pressure (altimeter): 30.03 inches Hg (1017.0 mb)
Winds: from the N (360 degrees) at 10 MPH (9 knots; 4.6 m/s)
Visibility: 1.49 miles (2.40 km)
Ceiling: 2000 feet AGL
Clouds: scattered clouds at 800 feet AGL
broken clouds at 2000 feet AGL
overcast cloud deck at 3200 feet AGL
Weather: -RA BR  (light rain, mist)

METAR text: RCNN 230330Z 35011KT 2400 -RA BR SCT006 BKN018 OVC030 17/16 Q1017 NOSIG RMK A3006
Conditions at: RCNN (TAINAN TW-AFB , TW) observed 0330 UTC 23 March 2019
Temperature: 17.0°C (63°F)
Dewpoint: 16.0°C (61°F) [RH = 94%]
Pressure (altimeter): 30.03 inches Hg (1017.0 mb)
Winds: from the N (350 degrees) at 13 MPH (11 knots; 5.7 m/s)
Visibility: 1.49 miles (2.40 km)
Ceiling: 1800 feet AGL
Clouds: scattered clouds at 600 feet AGL
broken clouds at 1800 feet AGL
overcast cloud deck at 3000 feet AGL
Weather: -RA BR  (light rain, mist)

METAR text: RCNN 230305Z 36009KT 2400 -RA BR SCT006 BKN018 OVC030 18/16 Q1018 NOSIG RMK A3007
Conditions at: RCNN (TAINAN TW-AFB , TW) observed 0305 UTC 23 March 2019
Temperature: 18.0°C (64°F)
Dewpoint: 16.0°C (61°F) [RH = 88%]
Pressure (altimeter): 30.06 inches Hg (1018.0 mb)
Winds: from the N (360 degrees) at 10 MPH (9 knots; 4.6 m/s)
Visibility: 1.49 miles (2.40 km)
Ceiling: 1800 feet AGL
Clouds: scattered clouds at 600 feet AGL
broken clouds at 1800 feet AGL
overcast cloud deck at 3000 feet AGL
Weather: -RA BR  (light rain, mist)

METAR text: RCNN 230300Z 36008KT 3200 -RA BR SCT008 BKN020 OVC032 18/16 Q1018 NOSIG RMK A3007 RA AMT 1.2MM
Conditions at: RCNN (TAINAN TW-AFB , TW) observed 0300 UTC 23 March 2019
Temperature: 18.0°C (64°F)
Dewpoint: 16.0°C (61°F) [RH = 88%]
Pressure (altimeter): 30.06 inches Hg (1018.0 mb)
Winds: from the N (360 degrees) at 9 MPH (8 knots; 4.1 m/s)
Visibility: 1.99 miles (3.20 km)
Ceiling: 2000 feet AGL
Clouds: scattered clouds at 800 feet AGL
broken clouds at 2000 feet AGL
overcast cloud deck at 3200 feet AGL
Weather: -RA BR  (light rain, mist)

METAR text: RCNN 230253Z 36006KT 3200 -RA BR SCT008 BKN020 OVC032 18/16 Q1017 NOSIG RMK A3006
Conditions at: RCNN (TAINAN TW-AFB , TW) observed 0253 UTC 23 March 2019
Temperature: 18.0°C (64°F)
Dewpoint: 16.0°C (61°F) [RH = 88%]
Pressure (altimeter): 30.03 inches Hg (1017.0 mb)
Winds: from the N (360 degrees) at 7 MPH (6 knots; 3.1 m/s)
Visibility: 1.99 miles (3.20 km)
Ceiling: 2000 feet AGL
Clouds: scattered clouds at 800 feet AGL
broken clouds at 2000 feet AGL
overcast cloud deck at 3200 feet AGL
Weather: -RA BR  (light rain, mist)

METAR text: RCNN 230230Z 01008KT 5000 -RA BR SCT010 BKN021 OVC040 19/17 Q1017 NOSIG RMK A3006
Conditions at: RCNN (TAINAN TW-AFB , TW) observed 0230 UTC 23 March 2019
Temperature: 19.0°C (66°F)
Dewpoint: 17.0°C (63°F) [RH = 88%]
Pressure (altimeter): 30.03 inches Hg (1017.0 mb)
Winds: from the N (10 degrees) at 9 MPH (8 knots; 4.1 m/s)
Visibility: 3 miles ( 5 km)
Ceiling: 2100 feet AGL
Clouds: scattered clouds at 1000 feet AGL
broken clouds at 2100 feet AGL
overcast cloud deck at 4000 feet AGL
Weather: -RA BR  (light rain, mist)

METAR text: RCNN 230200Z 36008KT 5000 -RA BR SCT010 BKN021 OVC040 18/16 Q1017 NOSIG RMK A3005
Conditions at: RCNN (TAINAN TW-AFB , TW) observed 0200 UTC 23 March 2019
Temperature: 18.0°C (64°F)
Dewpoint: 16.0°C (61°F) [RH = 88%]
Pressure (altimeter): 30.03 inches Hg (1017.0 mb)
Winds: from the N (360 degrees) at 9 MPH (8 knots; 4.1 m/s)
Visibility: 3 miles ( 5 km)
Ceiling: 2100 feet AGL
Clouds: scattered clouds at 1000 feet AGL
broken clouds at 2100 feet AGL
overcast cloud deck at 4000 feet AGL
Weather: -RA BR  (light rain, mist)

METAR text: RCNN 230130Z 35008KT 5000 -RA BR SCT010 BKN021 OVC040 19/17 Q1017 NOSIG RMK A3005
Conditions at: RCNN (TAINAN TW-AFB , TW) observed 0130 UTC 23 March 2019
Temperature: 19.0°C (66°F)
Dewpoint: 17.0°C (63°F) [RH = 88%]
Pressure (altimeter): 30.03 inches Hg (1017.0 mb)
Winds: from the N (350 degrees) at 9 MPH (8 knots; 4.1 m/s)
Visibility: 3 miles ( 5 km)
Ceiling: 2100 feet AGL
Clouds: scattered clouds at 1000 feet AGL
broken clouds at 2100 feet AGL
overcast cloud deck at 4000 feet AGL
Weather: -RA BR  (light rain, mist)

METAR text: RCNN 230100Z 03006KT 5000 -RA BR SCT010 BKN021 OVC040 19/17 Q1017 NOSIG RMK A3005 RA AMT 0.2MM
Conditions at: RCNN (TAINAN TW-AFB , TW) observed 0100 UTC 23 March 2019
Temperature: 19.0°C (66°F)
Dewpoint: 17.0°C (63°F) [RH = 88%]
Pressure (altimeter): 30.03 inches Hg (1017.0 mb)
Winds: from the NNE (30 degrees) at 7 MPH (6 knots; 3.1 m/s)
Visibility: 3 miles ( 5 km)
Ceiling: 2100 feet AGL
Clouds: scattered clouds at 1000 feet AGL
broken clouds at 2100 feet AGL
overcast cloud deck at 4000 feet AGL
Weather: -RA BR  (light rain, mist)

METAR text: RCNN 230055Z 02008KT 5000 -RA BR SCT010 BKN021 OVC040 18/16 Q1017 NOSIG RMK A3004
Conditions at: RCNN (TAINAN TW-AFB , TW) observed 0055 UTC 23 March 2019
Temperature: 18.0°C (64°F)
Dewpoint: 16.0°C (61°F) [RH = 88%]
Pressure (altimeter): 30.03 inches Hg (1017.0 mb)
Winds: from the NNE (20 degrees) at 9 MPH (8 knots; 4.1 m/s)
Visibility: 3 miles ( 5 km)
Ceiling: 2100 feet AGL
Clouds: scattered clouds at 1000 feet AGL
broken clouds at 2100 feet AGL
overcast cloud deck at 4000 feet AGL
Weather: -RA BR  (light rain, mist)

METAR text: RCNN 230030Z 01008KT 4000 -RA BR SCT010 BKN021 OVC040 18/16 Q1017 NOSIG RMK A3004
Conditions at: RCNN (TAINAN TW-AFB , TW) observed 0030 UTC 23 March 2019
Temperature: 18.0°C (64°F)
Dewpoint: 16.0°C (61°F) [RH = 88%]
Pressure (altimeter): 30.03 inches Hg (1017.0 mb)
Winds: from the N (10 degrees) at 9 MPH (8 knots; 4.1 m/s)
Visibility: 2.49 miles (4.01 km)
Ceiling: 2100 feet AGL
Clouds: scattered clouds at 1000 feet AGL
broken clouds at 2100 feet AGL
overcast cloud deck at 4000 feet AGL
Weather: -RA BR  (light rain, mist)

METAR text: RCNN 230011Z 01007KT 4000 -RA BR SCT010 BKN021 OVC040 18/16 Q1017 NOSIG RMK A3004
Conditions at: RCNN (TAINAN TW-AFB , TW) observed 0011 UTC 23 March 2019
Temperature: 18.0°C (64°F)
Dewpoint: 16.0°C (61°F) [RH = 88%]
Pressure (altimeter): 30.03 inches Hg (1017.0 mb)
Winds: from the N (10 degrees) at 8 MPH (7 knots; 3.6 m/s)
Visibility: 2.49 miles (4.01 km)
Ceiling: 2100 feet AGL
Clouds: scattered clouds at 1000 feet AGL
broken clouds at 2100 feet AGL
overcast cloud deck at 4000 feet AGL
Weather: -RA BR  (light rain, mist)

METAR text: RCNN 230000Z 02006KT 5000 -RA BR SCT010 BKN021 BKN040 18/16 Q1017 NOSIG RMK A3004 RA AMT 0.8MM
Conditions at: RCNN (TAINAN TW-AFB , TW) observed 0000 UTC 23 March 2019
Temperature: 18.0°C (64°F)
Dewpoint: 16.0°C (61°F) [RH = 88%]
Pressure (altimeter): 30.03 inches Hg (1017.0 mb)
Winds: from the NNE (20 degrees) at 7 MPH (6 knots; 3.1 m/s)
Visibility: 3 miles ( 5 km)
Ceiling: 2100 feet AGL
Clouds: scattered clouds at 1000 feet AGL
broken clouds at 2100 feet AGL
broken clouds at 4000 feet AGL
Weather: -RA BR  (light rain, mist)

METAR text: RCNN 222346Z 35006KT 5000 -RA BR SCT010 BKN021 BKN040 18/16 Q1017 NOSIG RMK A3004
Conditions at: RCNN (TAINAN TW-AFB , TW) observed 2346 UTC 22 March 2019
Temperature: 18.0°C (64°F)
Dewpoint: 16.0°C (61°F) [RH = 88%]
Pressure (altimeter): 30.03 inches Hg (1017.0 mb)
Winds: from the N (350 degrees) at 7 MPH (6 knots; 3.1 m/s)
Visibility: 3 miles ( 5 km)
Ceiling: 2100 feet AGL
Clouds: scattered clouds at 1000 feet AGL
broken clouds at 2100 feet AGL
broken clouds at 4000 feet AGL
Weather: -RA BR  (light rain, mist)

METAR text: RCNN 222330Z 35007KT 6000 -RA SCT012 BKN021 BKN050 18/16 Q1017 NOSIG RMK A3004
Conditions at: RCNN (TAINAN TW-AFB , TW) observed 2330 UTC 22 March 2019
Temperature: 18.0°C (64°F)
Dewpoint: 16.0°C (61°F) [RH = 88%]
Pressure (altimeter): 30.03 inches Hg (1017.0 mb)
Winds: from the N (350 degrees) at 8 MPH (7 knots; 3.6 m/s)
Visibility: 4 miles ( 6 km)
Ceiling: 2100 feet AGL
Clouds: scattered clouds at 1200 feet AGL
broken clouds at 2100 feet AGL
broken clouds at 5000 feet AGL
Weather: -RA  (light rain)

METAR text: RCNN 222315Z 36007KT 6000 -RA SCT012 BKN021 BKN050 19/16 Q1016 NOSIG RMK A3003
Conditions at: RCNN (TAINAN TW-AFB , TW) observed 2315 UTC 22 March 2019
Temperature: 19.0°C (66°F)
Dewpoint: 16.0°C (61°F) [RH = 83%]
Pressure (altimeter): 30.00 inches Hg (1016.0 mb)
Winds: from the N (360 degrees) at 8 MPH (7 knots; 3.6 m/s)
Visibility: 4 miles ( 6 km)
Ceiling: 2100 feet AGL
Clouds: scattered clouds at 1200 feet AGL
broken clouds at 2100 feet AGL
broken clouds at 5000 feet AGL
Weather: -RA  (light rain)

METAR text: RCNN 222300Z 01008KT 6000 VSCH FEW012 SCT032 BKN060 19/16 Q1016 NOSIG RMK A3002 VCSH SW
Conditions at: RCNN (TAINAN TW-AFB , TW) observed 2300 UTC 22 March 2019
Temperature: 19.0°C (66°F)
Dewpoint: 16.0°C (61°F) [RH = 83%]
Pressure (altimeter): 30.00 inches Hg (1016.0 mb)
Winds: from the N (10 degrees) at 9 MPH (8 knots; 4.1 m/s)
Visibility: 4 miles ( 6 km)
Ceiling: 6000 feet AGL
Clouds: few clouds at 1200 feet AGL
scattered clouds at 3200 feet AGL
broken clouds at 6000 feet AGL
Weather: no significant weather observed at this time

METAR text: RCNN 222230Z 02008KT 6000 VSCH FEW012 SCT032 BKN060 19/16 Q1015 NOSIG RMK A3000 VCSH SW
Conditions at: RCNN (TAINAN TW-AFB , TW) observed 2230 UTC 22 March 2019
Temperature: 19.0°C (66°F)
Dewpoint: 16.0°C (61°F) [RH = 83%]
Pressure (altimeter): 29.97 inches Hg (1015.0 mb)
Winds: from the NNE (20 degrees) at 9 MPH (8 knots; 4.1 m/s)
Visibility: 4 miles ( 6 km)
Ceiling: 6000 feet AGL
Clouds: few clouds at 1200 feet AGL
scattered clouds at 3200 feet AGL
broken clouds at 6000 feet AGL
Weather: no significant weather observed at this time

METAR text: RCNN 222200Z 01010KT 6000 VSCH FEW012 SCT025 BKN050 19/16 Q1015 NOSIG RMK A2999 VCSH SE
Conditions at: RCNN (TAINAN TW-AFB , TW) observed 2200 UTC 22 March 2019
Temperature: 19.0°C (66°F)
Dewpoint: 16.0°C (61°F) [RH = 83%]
Pressure (altimeter): 29.97 inches Hg (1015.0 mb)
Winds: from the N (10 degrees) at 12 MPH (10 knots; 5.1 m/s)
Visibility: 4 miles ( 6 km)
Ceiling: 5000 feet AGL
Clouds: few clouds at 1200 feet AGL
scattered clouds at 2500 feet AGL
broken clouds at 5000 feet AGL
Weather: no significant weather observed at this time

METAR text: RCNN 222150Z 02010KT 6000 VSCH FEW012 SCT025 BKN050 19/16 Q1015 NOSIG RMK A2999 VCSH SE
Conditions at: RCNN (TAINAN TW-AFB , TW) observed 2150 UTC 22 March 2019
Temperature: 19.0°C (66°F)
Dewpoint: 16.0°C (61°F) [RH = 83%]
Pressure (altimeter): 29.97 inches Hg (1015.0 mb)
Winds: from the NNE (20 degrees) at 12 MPH (10 knots; 5.1 m/s)
Visibility: 4 miles ( 6 km)
Ceiling: 5000 feet AGL
Clouds: few clouds at 1200 feet AGL
scattered clouds at 2500 feet AGL
broken clouds at 5000 feet AGL
Weather: no significant weather observed at this time

METAR text: RCNN 222130Z 02009KT 6000 -RA FEW012 SCT025 BKN050 19/16 Q1015 NOSIG RMK A2998
Conditions at: RCNN (TAINAN TW-AFB , TW) observed 2130 UTC 22 March 2019
Temperature: 19.0°C (66°F)
Dewpoint: 16.0°C (61°F) [RH = 83%]
Pressure (altimeter): 29.97 inches Hg (1015.0 mb)
Winds: from the NNE (20 degrees) at 10 MPH (9 knots; 4.6 m/s)
Visibility: 4 miles ( 6 km)
Ceiling: 5000 feet AGL
Clouds: few clouds at 1200 feet AGL
scattered clouds at 2500 feet AGL
broken clouds at 5000 feet AGL
Weather: -RA  (light rain)

METAR text: RCNN 222100Z 01009KT 6000 -RA FEW012 SCT025 BKN050 19/16 Q1015 NOSIG RMK A2998 RA AMT 2.0MM
Conditions at: RCNN (TAINAN TW-AFB , TW) observed 2100 UTC 22 March 2019
Temperature: 19.0°C (66°F)
Dewpoint: 16.0°C (61°F) [RH = 83%]
Pressure (altimeter): 29.97 inches Hg (1015.0 mb)
Winds: from the N (10 degrees) at 10 MPH (9 knots; 4.6 m/s)
Visibility: 4 miles ( 6 km)
Ceiling: 5000 feet AGL
Clouds: few clouds at 1200 feet AGL
scattered clouds at 2500 feet AGL
broken clouds at 5000 feet AGL
Weather: -RA  (light rain)

METAR text: RCNN 222035Z 36011KT 6000 -RA FEW012 BKN050 20/16 Q1015 RMK A2998
Conditions at: RCNN (TAINAN TW-AFB , TW) observed 2035 UTC 22 March 2019
Temperature: 20.0°C (68°F)
Dewpoint: 16.0°C (61°F) [RH = 78%]
Pressure (altimeter): 29.97 inches Hg (1015.0 mb)
Winds: from the N (360 degrees) at 13 MPH (11 knots; 5.7 m/s)
Visibility: 4 miles ( 6 km)
Ceiling: 5000 feet AGL
Clouds: few clouds at 1200 feet AGL
broken clouds at 5000 feet AGL
Weather: -RA  (light rain)

METAR text: RCNN 222030Z 35009KT 6000 FEW012 BKN060 20/16 Q1015 RMK A2998
Conditions at: RCNN (TAINAN TW-AFB , TW) observed 2030 UTC 22 March 2019
Temperature: 20.0°C (68°F)
Dewpoint: 16.0°C (61°F) [RH = 78%]
Pressure (altimeter): 29.97 inches Hg (1015.0 mb)
Winds: from the N (350 degrees) at 10 MPH (9 knots; 4.6 m/s)
Visibility: 4 miles ( 6 km)
Ceiling: 6000 feet AGL
Clouds: few clouds at 1200 feet AGL
broken clouds at 6000 feet AGL
Weather: no significant weather observed at this time

METAR text: RCNN 222000Z 36009KT 6000 FEW012 BKN060 19/16 Q1014 RMK A2996
Conditions at: RCNN (TAINAN TW-AFB , TW) observed 2000 UTC 22 March 2019
Temperature: 19.0°C (66°F)
Dewpoint: 16.0°C (61°F) [RH = 83%]
Pressure (altimeter): 29.94 inches Hg (1014.0 mb)
Winds: from the N (360 degrees) at 10 MPH (9 knots; 4.6 m/s)
Visibility: 4 miles ( 6 km)
Ceiling: 6000 feet AGL
Clouds: few clouds at 1200 feet AGL
broken clouds at 6000 feet AGL
Weather: no significant weather observed at this time

METAR text: RCNN 221900Z 02005KT 7000 FEW014 BKN060 20/17 Q1014 RMK A2995
Conditions at: RCNN (TAINAN TW-AFB , TW) observed 1900 UTC 22 March 2019
Temperature: 20.0°C (68°F)
Dewpoint: 17.0°C (63°F) [RH = 83%]
Pressure (altimeter): 29.94 inches Hg (1014.0 mb)
Winds: from the NNE (20 degrees) at 6 MPH (5 knots; 2.6 m/s)
Visibility: 4 miles ( 7 km)
Ceiling: 6000 feet AGL
Clouds: few clouds at 1400 feet AGL
broken clouds at 6000 feet AGL
Weather: no significant weather observed at this time

METAR text: RCNN 221800Z 03006KT 7000 FEW014 BKN060 20/17 Q1014 RMK A2996
Conditions at: RCNN (TAINAN TW-AFB , TW) observed 1800 UTC 22 March 2019
Temperature: 20.0°C (68°F)
Dewpoint: 17.0°C (63°F) [RH = 83%]
Pressure (altimeter): 29.94 inches Hg (1014.0 mb)
Winds: from the NNE (30 degrees) at 7 MPH (6 knots; 3.1 m/s)
Visibility: 4 miles ( 7 km)
Ceiling: 6000 feet AGL
Clouds: few clouds at 1400 feet AGL
broken clouds at 6000 feet AGL
Weather: no significant weather observed at this time

METAR text: RCNN 221700Z 02006KT 8000 FEW014 BKN060 20/17 Q1015 RMK A2998
Conditions at: RCNN (TAINAN TW-AFB , TW) observed 1700 UTC 22 March 2019
Temperature: 20.0°C (68°F)
Dewpoint: 17.0°C (63°F) [RH = 83%]
Pressure (altimeter): 29.97 inches Hg (1015.0 mb)
Winds: from the NNE (20 degrees) at 7 MPH (6 knots; 3.1 m/s)
Visibility: 5 miles ( 8 km)
Ceiling: 6000 feet AGL
Clouds: few clouds at 1400 feet AGL
broken clouds at 6000 feet AGL
Weather: no significant weather observed at this time

METAR text: RCNN 221600Z 36008KT 8000 FEW014 BKN060 20/17 Q1015 RMK A2998
Conditions at: RCNN (TAINAN TW-AFB , TW) observed 1600 UTC 22 March 2019
Temperature: 20.0°C (68°F)
Dewpoint: 17.0°C (63°F) [RH = 83%]
Pressure (altimeter): 29.97 inches Hg (1015.0 mb)
Winds: from the N (360 degrees) at 9 MPH (8 knots; 4.1 m/s)
Visibility: 5 miles ( 8 km)
Ceiling: 6000 feet AGL
Clouds: few clouds at 1400 feet AGL
broken clouds at 6000 feet AGL
Weather: no significant weather observed at this time

METAR text: RCNN 221500Z 35007KT 8000 FEW014 BKN060 21/17 Q1015 RMK A2998
Conditions at: RCNN (TAINAN TW-AFB , TW) observed 1500 UTC 22 March 2019
Temperature: 21.0°C (70°F)
Dewpoint: 17.0°C (63°F) [RH = 78%]
Pressure (altimeter): 29.97 inches Hg (1015.0 mb)
Winds: from the N (350 degrees) at 8 MPH (7 knots; 3.6 m/s)
Visibility: 5 miles ( 8 km)
Ceiling: 6000 feet AGL
Clouds: few clouds at 1400 feet AGL
broken clouds at 6000 feet AGL
Weather: no significant weather observed at this time

METAR text: RCNN 221400Z 36006KT 8000 FEW014 BKN060 21/17 Q1014 RMK A2997
Conditions at: RCNN (TAINAN TW-AFB , TW) observed 1400 UTC 22 March 2019
Temperature: 21.0°C (70°F)
Dewpoint: 17.0°C (63°F) [RH = 78%]
Pressure (altimeter): 29.94 inches Hg (1014.0 mb)
Winds: from the N (360 degrees) at 7 MPH (6 knots; 3.1 m/s)
Visibility: 5 miles ( 8 km)
Ceiling: 6000 feet AGL
Clouds: few clouds at 1400 feet AGL
broken clouds at 6000 feet AGL
Weather: no significant weather observed at this time

METAR text: RCNN 221330Z 35009KT 8000 FEW014 SCT060 22/18 Q1014 RMK A2996
Conditions at: RCNN (TAINAN TW-AFB , TW) observed 1330 UTC 22 March 2019
Temperature: 22.0°C (72°F)
Dewpoint: 18.0°C (64°F) [RH = 78%]
Pressure (altimeter): 29.94 inches Hg (1014.0 mb)
Winds: from the N (350 degrees) at 10 MPH (9 knots; 4.6 m/s)
Visibility: 5 miles ( 8 km)
Ceiling: at least 12,000 feet AGL
Clouds: few clouds at 1400 feet AGL
scattered clouds at 6000 feet AGL
Weather: no significant weather observed at this time

METAR text: RCNN 221300Z 36006KT 9000 FEW014 SCT060 22/18 Q1014 RMK A2995
Conditions at: RCNN (TAINAN TW-AFB , TW) observed 1300 UTC 22 March 2019
Temperature: 22.0°C (72°F)
Dewpoint: 18.0°C (64°F) [RH = 78%]
Pressure (altimeter): 29.94 inches Hg (1014.0 mb)
Winds: from the N (360 degrees) at 7 MPH (6 knots; 3.1 m/s)
Visibility: 6 miles ( 9 km)
Ceiling: at least 12,000 feet AGL
Clouds: few clouds at 1400 feet AGL
scattered clouds at 6000 feet AGL
Weather: no significant weather observed at this time

METAR text: RCNN 221230Z 03006KT 9000 FEW014 BKN060 22/18 Q1013 RMK A2993
Conditions at: RCNN (TAINAN TW-AFB , TW) observed 1230 UTC 22 March 2019
Temperature: 22.0°C (72°F)
Dewpoint: 18.0°C (64°F) [RH = 78%]
Pressure (altimeter): 29.91 inches Hg (1013.0 mb)
Winds: from the NNE (30 degrees) at 7 MPH (6 knots; 3.1 m/s)
Visibility: 6 miles ( 9 km)
Ceiling: 6000 feet AGL
Clouds: few clouds at 1400 feet AGL
broken clouds at 6000 feet AGL
Weather: no significant weather observed at this time

METAR text: RCNN 221200Z 36008KT 9000 FEW014 BKN060 22/18 Q1013 RMK A2993
Conditions at: RCNN (TAINAN TW-AFB , TW) observed 1200 UTC 22 March 2019
Temperature: 22.0°C (72°F)
Dewpoint: 18.0°C (64°F) [RH = 78%]
Pressure (altimeter): 29.91 inches Hg (1013.0 mb)
Winds: from the N (360 degrees) at 9 MPH (8 knots; 4.1 m/s)
Visibility: 6 miles ( 9 km)
Ceiling: 6000 feet AGL
Clouds: few clouds at 1400 feet AGL
broken clouds at 6000 feet AGL
Weather: no significant weather observed at this time

METAR text: RCNN 221130Z 01007KT 9000 FEW014 23/18 Q1013 RMK A2992
Conditions at: RCNN (TAINAN TW-AFB , TW) observed 1130 UTC 22 March 2019
Temperature: 23.0°C (73°F)
Dewpoint: 18.0°C (64°F) [RH = 73%]
Pressure (altimeter): 29.91 inches Hg (1013.0 mb)
Winds: from the N (10 degrees) at 8 MPH (7 knots; 3.6 m/s)
Visibility: 6 miles ( 9 km)
Ceiling: at least 12,000 feet AGL
Clouds: few clouds at 1400 feet AGL
Weather: no significant weather observed at this time

METAR text: RCNN 221100Z 35007KT 9000 FEW014 23/18 Q1012 NOSIG RMK A2991
Conditions at: RCNN (TAINAN TW-AFB , TW) observed 1100 UTC 22 March 2019
Temperature: 23.0°C (73°F)
Dewpoint: 18.0°C (64°F) [RH = 73%]
Pressure (altimeter): 29.88 inches Hg (1012.0 mb)
Winds: from the N (350 degrees) at 8 MPH (7 knots; 3.6 m/s)
Visibility: 6 miles ( 9 km)
Ceiling: at least 12,000 feet AGL
Clouds: few clouds at 1400 feet AGL
Weather: no significant weather observed at this time

Forecast for: RCNN (TAINAN TW-AFB , TW)
Text: TAF RCNN 231700Z 2318/2418 36008KT 7000 FEW010 BKN025 BKN050 TX24/2406Z TN16/2320Z
Forecast period: 1800 to 1900 UTC 23 March 2019
Forecast type: FROM: standard forecast or significant change
Winds: from the N (360 degrees) at 9 MPH (8 knots; 4.1 m/s)
Visibility: 4 miles (7 km)
Ceiling: 2500 feet AGL
Clouds: few clouds at 1000 feet AGL
broken clouds at 2500 feet AGL
broken clouds at 5000 feet AGL
Weather: no significant weather forecast for this period
Text: BECMG 2319/2321 30002KT 4000 BR
Forecast period: 1900 to 2200 UTC 23 March 2019
Forecast type: BECOMING: Conditions expected to become as follows by 2100 UTC 23 March 2019
Winds: from the WNW (300 degrees) at 2 MPH (2 knots; 1.0 m/s)
Visibility: 2.49 miles (4.01 km)
Ceiling: 2500 feet AGL
Clouds: few clouds at 1000 feet AGL
broken clouds at 2500 feet AGL
broken clouds at 5000 feet AGL
Weather: BR  (mist)
Text: BECMG 2322/2401 30006KT 2400 RA BR SCT008 BKN020 OVC032
Forecast period: 2200 UTC 23 March 2019 to 0200 UTC 24 March 2019
Forecast type: BECOMING: Conditions expected to become as follows by 0100 UTC 24 March 2019
Winds: from the WNW (300 degrees) at 7 MPH (6 knots; 3.1 m/s)
Visibility: 1.49 miles (2.40 km)
Ceiling: 2000 feet AGL
Clouds: scattered clouds at 800 feet AGL
broken clouds at 2000 feet AGL
overcast cloud deck at 3200 feet AGL
Weather: RA BR  (moderate rain, mist)
Text: BECMG 2402/2405 36006KT 5000 BR FEW010 BKN025 BKN050
Forecast period: 0200 to 1800 UTC 24 March 2019
Forecast type: BECOMING: Conditions expected to become as follows by 0500 UTC 24 March 2019
Winds: from the N (360 degrees) at 7 MPH (6 knots; 3.1 m/s)
Visibility: 3 miles (5 km)
Ceiling: 2500 feet AGL
Clouds: few clouds at 1000 feet AGL
broken clouds at 2500 feet AGL
broken clouds at 5000 feet AGL
Weather: BR  (mist)
Text: TEMPO 2406/2411 2400 RA BR SCT008 BKN020 OVC032
Forecast period: 0600 to 1100 UTC 24 March 2019
Forecast type: TEMPORARY: The following changes expected for less than half the time period
Visibility: 1.49 miles (2.40 km)
Ceiling: 2000 feet AGL
Clouds: scattered clouds at 800 feet AGL
broken clouds at 2000 feet AGL
overcast cloud deck at 3200 feet AGL
Weather: RA BR  (moderate rain, mist)